createdAt,value
2019-02-27T00:01:24.230Z,5.37
2019-02-27T00:03:35.241Z,5.13
2019-02-27T00:05:46.055Z,3.73
2019-02-27T00:07:56.857Z,4.07
2019-02-27T00:10:07.851Z,5.80
2019-02-27T00:12:19.360Z,4.17
2019-02-27T00:14:31.812Z,5.27
2019-02-27T00:16:44.637Z,4.37
2019-02-27T00:18:58.822Z,5.47
2019-02-27T00:21:11.032Z,3.73
2019-02-27T00:23:24.058Z,5.73
2019-02-27T00:25:36.112Z,4.93
2019-02-27T00:27:49.103Z,6.43
2019-02-27T00:30:04.591Z,4.63
2019-02-27T00:32:13.220Z,5.93
2019-02-27T00:34:24.123Z,6.33
2019-02-27T00:36:34.954Z,5.13
2019-02-27T00:38:45.751Z,5.03
2019-02-27T00:40:56.563Z,5.93
2019-02-27T00:43:07.372Z,5.00
2019-02-27T00:45:18.169Z,3.67
2019-02-27T00:47:29.135Z,5.33
2019-02-27T00:49:40.026Z,5.10
2019-02-27T00:51:50.842Z,2.70
2019-02-27T00:54:01.743Z,3.13
2019-02-27T00:56:12.925Z,3.43
2019-02-27T00:58:27.044Z,5.03
2019-02-27T01:00:39.351Z,5.90
2019-02-27T01:02:53.491Z,5.10
2019-02-27T01:05:45.211Z,4.57
2019-02-27T01:07:56.139Z,5.67
2019-02-27T01:10:48.610Z,4.97
2019-02-27T01:12:59.445Z,3.80
2019-02-27T01:15:51.892Z,5.50
2019-02-27T01:18:02.829Z,3.90
2019-02-27T01:20:35.389Z,3.63
2019-02-27T01:22:46.200Z,4.77
2019-02-27T01:24:57.151Z,4.03
2019-02-27T01:27:07.970Z,3.77
2019-02-27T01:29:18.796Z,7.20
2019-02-27T01:31:29.664Z,6.53
2019-02-27T01:33:40.503Z,7.10
2019-02-27T01:35:52.131Z,7.83
2019-02-27T01:38:05.288Z,7.67
2019-02-27T01:40:18.032Z,7.53
2019-02-27T01:42:32.794Z,6.87
2019-02-27T01:44:43.995Z,5.57
2019-02-27T01:46:54.901Z,4.27
2019-02-27T01:49:05.722Z,6.87
2019-02-27T01:51:16.518Z,4.50
2019-02-27T01:53:27.307Z,4.97
2019-02-27T01:55:38.132Z,4.30
2019-02-27T01:57:48.929Z,4.83
2019-02-27T01:59:59.757Z,4.90
2019-02-27T02:02:10.546Z,4.90
2019-02-27T02:04:21.383Z,4.20
2019-02-27T02:06:32.926Z,5.20
2019-02-27T02:08:48.000Z,6.03
2019-02-27T02:10:58.900Z,4.27
2019-02-27T02:13:52.131Z,4.83
2019-02-27T02:16:44.589Z,5.67
2019-02-27T02:19:37.044Z,6.60
2019-02-27T02:22:27.586Z,5.27
2019-02-27T02:25:20.037Z,3.87
2019-02-27T02:28:14.704Z,3.93
2019-02-27T02:31:06.405Z,4.47
2019-02-27T02:34:05.110Z,3.77
2019-02-27T02:36:51.434Z,3.10
2019-02-27T02:39:41.973Z,4.40
2019-02-27T02:42:32.530Z,3.27
2019-02-27T02:45:23.091Z,3.23
2019-02-27T02:48:15.567Z,3.50
2019-02-27T02:50:53.918Z,4.63
2019-02-27T02:53:40.592Z,5.13
2019-02-27T02:56:31.127Z,5.03
2019-02-27T02:59:24.927Z,3.57
2019-02-27T03:02:14.112Z,4.37
2019-02-27T03:05:04.673Z,3.60
2019-02-27T03:07:57.148Z,5.03
2019-02-27T03:10:49.580Z,5.10
2019-02-27T03:13:22.228Z,4.50
2019-02-27T03:16:14.681Z,5.03
2019-02-27T03:19:07.158Z,5.57
2019-02-27T03:22:03.122Z,4.17
2019-02-27T03:24:52.079Z,6.10
2019-02-27T03:27:44.511Z,4.13
2019-02-27T03:30:36.875Z,4.50
2019-02-27T03:33:27.578Z,3.63
2019-02-27T03:36:19.967Z,4.37
2019-02-27T03:39:12.438Z,3.90
2019-02-27T03:42:02.957Z,4.83
2019-02-27T03:44:56.371Z,5.77
2019-02-27T03:47:52.084Z,4.90
2019-02-27T03:50:49.566Z,4.43
2019-02-27T03:53:38.473Z,4.77
2019-02-27T03:56:30.929Z,3.97
2019-02-27T03:59:23.391Z,3.80
2019-02-27T04:02:15.836Z,4.73
2019-02-27T04:05:08.295Z,4.33
2019-02-27T04:07:58.846Z,4.07
2019-02-27T04:10:09.661Z,5.50
2019-02-27T04:12:20.462Z,4.40
2019-02-27T04:15:17.740Z,5.10
2019-02-27T04:17:51.888Z,6.63
2019-02-27T04:19:58.145Z,5.37
2019-02-27T04:22:08.943Z,5.00
2019-02-27T04:24:22.551Z,4.67
2019-02-27T04:26:32.477Z,4.90
2019-02-27T04:28:43.265Z,6.37
2019-02-27T04:30:54.106Z,7.23
2019-02-27T04:33:04.932Z,7.33
2019-02-27T04:35:15.754Z,5.60
2019-02-27T04:37:26.562Z,6.10
2019-02-27T04:39:38.289Z,4.90
2019-02-27T04:41:51.995Z,5.10
2019-02-27T04:44:05.369Z,5.67
2019-02-27T04:46:15.595Z,10.27
2019-02-27T04:48:27.085Z,8.93
2019-02-27T04:50:41.731Z,5.80
2019-02-27T04:52:51.918Z,4.30
2019-02-27T04:55:44.360Z,6.30
2019-02-27T04:57:55.173Z,8.83
2019-02-27T05:00:47.625Z,13.60
2019-02-27T05:02:58.449Z,11.97
2019-02-27T05:05:09.348Z,6.13
2019-02-27T05:07:20.842Z,5.10
2019-02-27T05:09:34.046Z,6.67
2019-02-27T05:11:48.338Z,5.00
2019-02-27T05:13:58.383Z,6.03
2019-02-27T05:16:50.852Z,5.50
2019-02-27T05:19:03.992Z,4.97
2019-02-27T05:21:18.955Z,6.70
2019-02-27T05:23:27.204Z,7.17
2019-02-27T05:25:37.993Z,7.23
2019-02-27T05:27:48.804Z,5.03
2019-02-27T05:30:00.097Z,6.33
2019-02-27T05:32:12.323Z,5.77
2019-02-27T05:34:23.161Z,5.57
2019-02-27T05:36:33.954Z,6.00
2019-02-27T05:38:44.780Z,4.00
2019-02-27T05:40:59.847Z,9.03
2019-02-27T05:43:08.312Z,6.93
2019-02-27T05:45:19.100Z,7.23
2019-02-27T05:47:29.886Z,6.43
2019-02-27T05:49:40.708Z,5.90
2019-02-27T05:51:51.506Z,6.40
2019-02-27T05:54:02.325Z,6.13
2019-02-27T05:56:15.615Z,4.53
2019-02-27T05:58:25.820Z,6.17
2019-02-27T06:00:36.627Z,6.53
2019-02-27T06:02:47.429Z,6.27
2019-02-27T06:04:59.160Z,6.80
2019-02-27T06:07:10.974Z,6.47
2019-02-27T06:09:21.777Z,7.30
2019-02-27T06:11:33.199Z,5.23
2019-02-27T06:13:47.593Z,4.57
2019-02-27T06:16:02.768Z,4.73
2019-02-27T06:18:10.747Z,11.37
2019-02-27T06:20:21.600Z,5.80
2019-02-27T06:22:32.508Z,5.10
2019-02-27T06:24:45.598Z,6.10
2019-02-27T06:26:56.055Z,6.97
2019-02-27T06:29:06.992Z,8.03
2019-02-27T06:31:17.828Z,8.10
2019-02-27T06:33:28.628Z,8.87
2019-02-27T06:35:39.443Z,7.53
2019-02-27T06:37:51.358Z,7.37
2019-02-27T06:40:44.621Z,9.17
2019-02-27T06:42:56.883Z,9.30
2019-02-27T06:45:49.824Z,8.43
2019-02-27T06:48:00.667Z,9.97
2019-02-27T06:50:31.346Z,7.47
2019-02-27T06:52:43.030Z,10.23
2019-02-27T06:54:55.006Z,10.33
2019-02-27T06:57:07.772Z,10.83
2019-02-27T06:59:18.541Z,10.63
2019-02-27T07:01:29.369Z,9.43
2019-02-27T07:03:40.178Z,8.07
2019-02-27T07:05:51.020Z,6.93
2019-02-27T07:08:02.219Z,8.60
2019-02-27T07:10:36.282Z,11.23
2019-02-27T07:12:47.098Z,9.67
2019-02-27T07:14:57.901Z,8.77
2019-02-27T07:17:08.746Z,11.20
2019-02-27T07:19:19.569Z,8.53
2019-02-27T07:21:32.828Z,10.70
2019-02-27T07:23:43.112Z,9.83
2019-02-27T07:25:53.909Z,11.27
2019-02-27T07:28:08.391Z,15.30
2019-02-27T07:30:59.213Z,15.80
2019-02-27T07:33:10.071Z,13.23
2019-02-27T07:35:25.605Z,10.77
2019-02-27T07:37:33.628Z,9.00
2019-02-27T07:39:44.431Z,9.50
2019-02-27T07:41:55.247Z,11.03
2019-02-27T07:44:06.053Z,8.23
2019-02-27T07:46:16.933Z,9.90
2019-02-27T07:48:27.792Z,8.13
2019-02-27T07:50:38.623Z,9.73
2019-02-27T07:52:51.839Z,9.33
2019-02-27T07:55:43.902Z,9.53
2019-02-27T07:57:58.401Z,12.07
2019-02-27T08:00:27.298Z,7.93
2019-02-27T08:02:38.091Z,10.13
2019-02-27T08:04:48.905Z,9.57
2019-02-27T08:06:59.718Z,9.83
2019-02-27T08:09:10.556Z,8.63
2019-02-27T08:11:21.375Z,9.30
2019-02-27T08:13:32.170Z,10.07
2019-02-27T08:15:42.976Z,10.23
2019-02-27T08:17:57.476Z,8.30
2019-02-27T08:20:48.189Z,8.23
2019-02-27T08:22:59.062Z,10.27
2019-02-27T08:25:29.738Z,9.47
2019-02-27T08:27:43.085Z,9.37
2019-02-27T08:29:53.262Z,7.90
2019-02-27T08:32:05.540Z,9.40
2019-02-27T08:34:16.936Z,8.23
2019-02-27T08:36:27.749Z,7.33
2019-02-27T08:38:38.557Z,8.23
2019-02-27T08:40:49.348Z,9.30
2019-02-27T08:43:00.158Z,7.63
2019-02-27T08:45:30.847Z,9.77
2019-02-27T08:47:43.506Z,9.53
2019-02-27T08:49:57.629Z,8.43
2019-02-27T08:52:08.540Z,7.40
2019-02-27T08:54:19.942Z,8.83
2019-02-27T08:56:30.748Z,9.03
2019-02-27T08:58:41.542Z,7.53
2019-02-27T09:00:52.460Z,8.53
2019-02-27T09:03:03.747Z,7.87
2019-02-27T09:05:19.783Z,9.83
2019-02-27T09:07:28.937Z,7.97
2019-02-27T09:09:39.789Z,7.30
2019-02-27T09:11:50.600Z,10.87
2019-02-27T09:14:01.417Z,6.97
2019-02-27T09:16:12.246Z,8.20
2019-02-27T09:18:23.077Z,8.43
2019-02-27T09:20:33.941Z,8.20
2019-02-27T09:22:44.753Z,8.03
2019-02-27T09:24:57.168Z,9.50
2019-02-27T09:27:08.291Z,11.13
2019-02-27T09:29:19.313Z,6.17
2019-02-27T09:31:30.154Z,9.43
2019-02-27T09:33:40.966Z,7.80
2019-02-27T09:35:51.798Z,9.30
2019-02-27T09:38:02.599Z,11.97
2019-02-27T09:40:55.072Z,8.27
2019-02-27T09:43:06.330Z,11.43
2019-02-27T09:45:38.546Z,9.43
2019-02-27T09:47:49.484Z,9.07
2019-02-27T09:50:00.293Z,9.37
2019-02-27T09:52:11.117Z,8.83
2019-02-27T09:54:21.925Z,7.30
2019-02-27T09:56:32.869Z,8.33
2019-02-27T09:58:45.552Z,11.47
2019-02-27T10:01:38.048Z,7.73
2019-02-27T10:03:48.854Z,9.20
2019-02-27T10:05:59.648Z,8.20
2019-02-27T10:10:50.333Z,10.63
2019-02-27T10:13:03.278Z,11.43
2019-02-27T10:18:06.332Z,8.93
2019-02-27T10:20:17.138Z,9.20
2019-02-27T10:22:27.931Z,9.60
2019-02-27T10:24:38.782Z,11.00
2019-02-27T10:26:49.723Z,9.50
2019-02-27T10:29:00.574Z,8.00
2019-02-27T10:31:12.728Z,10.00
2019-02-27T10:33:25.842Z,9.03
2019-02-27T10:35:36.872Z,9.40
2019-02-27T10:37:50.469Z,11.47
2019-02-27T10:40:00.410Z,11.10
2019-02-27T10:42:11.318Z,10.40
2019-02-27T10:44:22.196Z,9.80
2019-02-27T10:46:33.025Z,8.93
2019-02-27T10:48:46.932Z,10.83
2019-02-27T10:50:56.594Z,10.23
2019-02-27T10:53:07.415Z,10.77
2019-02-27T10:55:59.895Z,9.97
2019-02-27T10:58:13.275Z,9.60
2019-02-27T11:01:05.089Z,8.10
2019-02-27T11:03:15.893Z,9.13
2019-02-27T11:06:08.390Z,10.23
2019-02-27T11:08:20.027Z,9.53
2019-02-27T11:10:30.862Z,9.40
2019-02-27T11:12:41.791Z,9.53
2019-02-27T11:14:52.625Z,8.33
2019-02-27T11:17:03.504Z,8.37
2019-02-27T11:19:16.645Z,9.23
2019-02-27T11:21:26.965Z,8.73
2019-02-27T11:23:40.906Z,9.60
2019-02-27T11:25:50.574Z,7.63
2019-02-27T11:28:01.399Z,7.17
2019-02-27T11:30:36.176Z,9.10
2019-02-27T11:32:46.192Z,7.90
2019-02-27T11:34:56.976Z,9.63
2019-02-27T11:37:12.854Z,8.53
2019-02-27T11:39:20.480Z,7.77
2019-02-27T11:41:31.297Z,8.53
2019-02-27T11:43:42.106Z,8.33
2019-02-27T11:45:57.526Z,7.17
2019-02-27T11:48:05.704Z,8.00
2019-02-27T11:50:58.158Z,8.60
2019-02-27T11:53:08.959Z,6.47
2019-02-27T11:56:01.438Z,7.20
2019-02-27T11:58:12.246Z,7.57
2019-02-27T12:01:04.744Z,7.03
2019-02-27T12:03:15.647Z,3.33
2019-02-27T12:06:08.505Z,4.87
2019-02-27T12:08:19.308Z,4.23
2019-02-27T12:11:13.269Z,2.90
2019-02-27T12:13:24.595Z,2.23
2019-02-27T12:15:35.413Z,2.53
2019-02-27T12:17:47.013Z,3.30
2019-02-27T12:19:59.037Z,2.27
2019-02-27T12:22:09.864Z,1.97
2019-02-27T12:24:20.705Z,2.90
2019-02-27T12:26:34.448Z,2.60
2019-02-27T12:28:44.476Z,3.80
2019-02-27T12:30:55.297Z,5.30
2019-02-27T12:33:06.148Z,4.73
2019-02-27T12:35:36.831Z,3.80
2019-02-27T12:37:47.730Z,6.67
2019-02-27T12:39:58.543Z,5.07
2019-02-27T12:42:09.360Z,4.93
2019-02-27T12:44:20.177Z,4.03
2019-02-27T12:46:31.842Z,3.73
2019-02-27T12:48:46.139Z,4.90
2019-02-27T12:50:56.434Z,5.53
2019-02-27T12:53:07.264Z,3.90
2019-02-27T12:57:56.598Z,3.30
2019-02-27T13:00:49.062Z,3.90
2019-02-27T13:02:59.977Z,4.33
2019-02-27T13:05:52.468Z,5.30
2019-02-27T13:08:03.304Z,3.73
2019-02-27T13:10:34.426Z,3.50
2019-02-27T13:12:45.222Z,4.47
2019-02-27T13:14:56.037Z,4.13
2019-02-27T13:17:06.833Z,3.23
2019-02-27T13:19:17.703Z,3.93
2019-02-27T13:21:28.500Z,5.03
2019-02-27T13:23:42.234Z,7.93
2019-02-27T13:25:52.042Z,8.63
2019-02-27T13:28:02.963Z,6.33
2019-02-27T13:30:33.652Z,7.20
2019-02-27T13:32:44.495Z,8.03
2019-02-27T13:34:55.316Z,8.40
2019-02-27T13:37:06.900Z,7.13
2019-02-27T13:39:18.844Z,9.03
2019-02-27T13:41:29.660Z,7.67
2019-02-27T13:43:40.483Z,6.67
2019-02-27T13:45:51.289Z,6.77
2019-02-27T13:50:34.652Z,6.87
2019-02-27T13:52:49.817Z,6.30
2019-02-27T13:54:58.142Z,5.57
2019-02-27T13:57:08.954Z,6.93
2019-02-27T13:59:19.756Z,6.77
2019-02-27T14:01:30.586Z,6.37
2019-02-27T14:03:41.492Z,5.90
2019-02-27T14:05:52.408Z,6.63
2019-02-27T14:08:03.305Z,7.63
2019-02-27T14:10:55.813Z,7.33
2019-02-27T14:13:09.733Z,7.83
2019-02-27T14:16:01.604Z,9.10
2019-02-27T14:18:13.449Z,7.57
2019-02-27T14:20:27.064Z,7.37
2019-02-27T14:22:40.730Z,9.37
2019-02-27T14:24:51.833Z,6.33
2019-02-27T14:27:03.678Z,8.50
2019-02-27T14:29:14.467Z,11.03
2019-02-27T14:31:25.265Z,8.60
2019-02-27T14:33:36.171Z,5.40
2019-02-27T14:35:47.237Z,7.63
2019-02-27T14:37:58.045Z,7.10
2019-02-27T14:40:50.491Z,5.37
2019-02-27T14:43:01.453Z,5.17
2019-02-27T14:45:53.881Z,5.97
2019-02-27T14:48:04.796Z,7.30
2019-02-27T14:50:57.237Z,7.00
2019-02-27T14:53:08.066Z,6.73
2019-02-27T14:56:00.515Z,9.83
2019-02-27T14:58:11.357Z,5.93
2019-02-27T15:01:03.822Z,7.63
2019-02-27T15:03:14.660Z,7.63
2019-02-27T15:05:25.475Z,7.73
2019-02-27T15:07:36.386Z,9.20
2019-02-27T15:09:48.011Z,9.00
2019-02-27T15:11:59.941Z,8.13
2019-02-27T15:14:10.775Z,9.47
2019-02-27T15:16:21.939Z,9.27
2019-02-27T15:18:32.777Z,8.27
2019-02-27T15:20:43.797Z,7.50
2019-02-27T15:22:54.871Z,8.37
2019-02-27T15:25:47.333Z,9.90
2019-02-27T15:27:59.522Z,9.60
2019-02-27T15:30:52.647Z,12.73
2019-02-27T15:33:05.466Z,9.63
2019-02-27T15:35:21.026Z,14.83
2019-02-27T15:37:30.354Z,11.47
2019-02-27T15:39:41.193Z,10.27
2019-02-27T15:41:51.996Z,10.90
2019-02-27T15:44:03.055Z,12.63
2019-02-27T15:46:13.940Z,13.63
2019-02-27T15:48:24.895Z,9.33
2019-02-27T15:50:35.738Z,11.70
2019-02-27T15:52:46.558Z,13.90
2019-02-27T15:54:59.192Z,10.97
2019-02-27T15:57:10.096Z,11.80
2019-02-27T15:59:20.986Z,14.20
2019-02-27T16:01:33.093Z,15.87
2019-02-27T16:03:46.505Z,12.40
2019-02-27T16:05:57.412Z,12.20
2019-02-27T16:08:08.217Z,11.43
2019-02-27T16:10:42.602Z,10.63
2019-02-27T16:12:51.758Z,14.97
2019-02-27T16:15:22.515Z,10.60
2019-02-27T16:17:33.444Z,7.50
2019-02-27T16:19:44.716Z,10.90
2019-02-27T16:21:57.876Z,11.80
2019-02-27T16:24:10.266Z,14.03
2019-02-27T16:26:26.969Z,11.77
2019-02-27T16:28:35.179Z,12.43
2019-02-27T16:30:45.977Z,13.50
2019-02-27T16:32:56.932Z,16.20
2019-02-27T16:35:08.140Z,15.10
2019-02-27T16:37:22.850Z,12.23
2019-02-27T16:39:33.303Z,11.07
2019-02-27T16:41:45.040Z,9.70
2019-02-27T16:43:56.875Z,10.27
2019-02-27T16:46:08.767Z,10.57
2019-02-27T16:48:20.406Z,10.97
2019-02-27T16:50:31.216Z,19.13
2019-02-27T16:52:42.778Z,13.30
2019-02-27T16:54:54.906Z,13.80
2019-02-27T16:57:05.736Z,11.40
2019-02-27T16:59:16.574Z,11.90
2019-02-27T17:01:29.558Z,9.17
2019-02-27T17:03:40.112Z,9.87
2019-02-27T17:05:50.917Z,9.53
2019-02-27T17:08:02.736Z,9.37
2019-02-27T17:10:56.189Z,10.20
2019-02-27T17:13:06.982Z,8.70
2019-02-27T17:15:17.997Z,9.07
2019-02-27T17:17:28.843Z,8.07
2019-02-27T17:19:39.676Z,11.17
2019-02-27T17:21:50.475Z,8.27
2019-02-27T17:24:01.327Z,11.70
2019-02-27T17:26:12.148Z,13.10
2019-02-27T17:28:23.024Z,10.53
2019-02-27T17:31:15.476Z,11.50
2019-02-27T17:33:26.330Z,12.17
2019-02-27T17:35:37.145Z,13.27
2019-02-27T17:37:48.025Z,11.73
2019-02-27T17:39:59.319Z,10.80
2019-02-27T17:42:11.626Z,12.60
2019-02-27T17:44:22.447Z,12.27
2019-02-27T17:46:33.242Z,11.83
2019-02-27T17:48:45.945Z,12.97
2019-02-27T17:50:56.821Z,12.33
2019-02-27T17:53:07.630Z,11.63
2019-02-27T17:55:18.564Z,11.20
2019-02-27T17:57:29.350Z,12.03
2019-02-27T17:59:42.424Z,12.37
2019-02-27T18:01:53.186Z,12.77
2019-02-27T18:04:03.994Z,14.30
2019-02-27T18:06:14.822Z,11.63
2019-02-27T18:08:25.633Z,13.93
2019-02-27T18:13:15.497Z,13.60
2019-02-27T18:15:26.342Z,14.97
2019-02-27T18:17:37.126Z,11.83
2019-02-27T18:19:50.176Z,13.37
2019-02-27T18:22:00.735Z,14.13
2019-02-27T18:24:11.545Z,14.67
2019-02-27T18:26:22.380Z,17.80
2019-02-27T18:28:33.706Z,14.63
2019-02-27T18:30:45.968Z,15.10
2019-02-27T18:32:56.917Z,12.77
2019-02-27T18:35:07.823Z,16.53
2019-02-27T18:37:19.740Z,15.57
2019-02-27T18:39:36.381Z,14.00
2019-02-27T18:41:45.731Z,15.93
2019-02-27T18:43:56.827Z,16.67
2019-02-27T18:46:07.688Z,18.53
2019-02-27T18:48:18.516Z,14.30
2019-02-27T18:50:29.461Z,17.63
2019-02-27T18:52:40.266Z,18.40
2019-02-27T18:54:51.090Z,16.20
2019-02-27T18:57:01.920Z,17.10
2019-02-27T18:59:12.832Z,17.53
2019-02-27T19:01:23.864Z,13.90
2019-02-27T19:03:34.655Z,13.70
2019-02-27T19:05:45.475Z,15.07
2019-02-27T19:07:56.421Z,14.33
2019-02-27T19:12:45.432Z,17.97
2019-02-27T19:14:56.352Z,15.60
2019-02-27T19:17:07.342Z,14.67
2019-02-27T19:19:18.306Z,14.80
2019-02-27T19:21:32.552Z,16.07
2019-02-27T19:23:41.846Z,17.83
2019-02-27T19:25:52.669Z,24.17
2019-02-27T19:28:03.513Z,21.73
2019-02-27T19:30:34.821Z,18.13
2019-02-27T19:33:27.532Z,16.67
2019-02-27T19:35:38.320Z,19.63
2019-02-27T19:37:49.158Z,19.77
2019-02-27T19:39:59.982Z,13.77
2019-02-27T19:42:13.128Z,13.43
2019-02-27T19:44:28.585Z,13.53
2019-02-27T19:46:36.404Z,14.13
2019-02-27T19:48:47.258Z,15.83
2019-02-27T19:50:58.167Z,15.63
2019-02-27T19:53:09.098Z,15.23
2019-02-27T19:55:19.926Z,14.27
2019-02-27T19:57:30.715Z,12.07
2019-02-27T19:59:41.571Z,13.33
2019-02-27T20:01:52.390Z,12.67
2019-02-27T20:04:03.232Z,15.00
2019-02-27T20:06:14.060Z,16.40
2019-02-27T20:08:26.482Z,15.77
2019-02-27T20:10:37.815Z,16.17
2019-02-27T20:12:52.934Z,16.27
2019-02-27T20:15:01.574Z,14.33
2019-02-27T20:17:12.421Z,11.93
2019-02-27T20:19:28.373Z,15.93
2019-02-27T20:21:36.071Z,14.77
2019-02-27T20:23:46.923Z,16.27
2019-02-27T20:25:57.718Z,14.17
2019-02-27T20:28:08.631Z,16.30
2019-02-27T20:31:01.115Z,13.47
2019-02-27T20:33:11.997Z,16.13
2019-02-27T20:35:22.960Z,14.90
2019-02-27T20:37:33.874Z,15.00
2019-02-27T20:39:44.879Z,15.83
2019-02-27T20:41:55.718Z,14.63
2019-02-27T20:44:06.616Z,15.80
2019-02-27T20:46:17.559Z,15.77
2019-02-27T20:48:28.343Z,14.10
2019-02-27T20:51:20.816Z,13.07
2019-02-27T20:53:31.639Z,17.57
2019-02-27T20:55:42.442Z,14.27
2019-02-27T20:57:53.388Z,15.27
2019-02-27T21:00:45.887Z,15.53
2019-02-27T21:02:56.886Z,17.70
2019-02-27T21:05:49.371Z,18.80
2019-02-27T21:08:02.061Z,18.10
2019-02-27T21:10:33.276Z,23.00
2019-02-27T21:12:53.522Z,20.67
2019-02-27T21:14:57.933Z,15.50
2019-02-27T21:17:09.664Z,18.27
2019-02-27T21:19:20.472Z,14.80
2019-02-27T21:21:32.786Z,16.37
2019-02-27T21:23:44.148Z,14.17
2019-02-27T21:25:54.977Z,17.90
2019-02-27T21:28:07.623Z,15.63
2019-02-27T21:31:00.192Z,13.63
2019-02-27T21:33:11.918Z,17.30
2019-02-27T21:35:28.928Z,14.63
2019-02-27T21:37:36.738Z,14.63
2019-02-27T21:39:47.551Z,13.40
2019-02-27T21:41:58.417Z,14.17
2019-02-27T21:44:09.242Z,19.40
2019-02-27T21:46:20.057Z,15.27
2019-02-27T21:48:30.887Z,17.80
2019-02-27T21:50:41.702Z,14.43
2019-02-27T21:52:54.390Z,14.83
2019-02-27T21:55:46.991Z,12.20
2019-02-27T21:57:58.258Z,13.87
2019-02-27T22:00:30.373Z,12.77
2019-02-27T22:02:41.201Z,14.57
2019-02-27T22:04:52.024Z,11.90
2019-02-27T22:07:02.816Z,15.23
2019-02-27T22:09:14.606Z,15.87
2019-02-27T22:11:27.104Z,13.23
2019-02-27T22:13:39.192Z,12.00
2019-02-27T22:15:50.053Z,12.43
2019-02-27T22:18:00.971Z,16.13
2019-02-27T22:20:12.001Z,16.03
2019-02-27T22:22:22.823Z,12.97
2019-02-27T22:24:33.637Z,18.53
2019-02-27T22:26:44.465Z,12.70
2019-02-27T22:28:55.302Z,16.00
2019-02-27T22:31:07.597Z,16.40
2019-02-27T22:33:22.035Z,13.60
2019-02-27T22:35:37.289Z,14.10
2019-02-27T22:37:44.457Z,14.07
2019-02-27T22:39:55.377Z,14.93
2019-02-27T22:42:06.178Z,12.63
2019-02-27T22:44:17.019Z,11.83
2019-02-27T22:46:27.869Z,12.93
2019-02-27T22:48:38.678Z,13.37
2019-02-27T22:50:49.498Z,13.53
2019-02-27T22:53:00.303Z,11.63
2019-02-27T22:55:11.330Z,11.47
2019-02-27T22:57:22.884Z,13.47
2019-02-27T22:59:37.341Z,13.37
2019-02-27T23:02:29.236Z,11.77
2019-02-27T23:04:40.050Z,11.77
2019-02-27T23:06:50.888Z,11.80
2019-02-27T23:11:54.041Z,11.80
2019-02-27T23:14:04.942Z,10.43
2019-02-27T23:16:16.070Z,12.27
2019-02-27T23:18:26.954Z,11.70
2019-02-27T23:20:37.777Z,11.60
2019-02-27T23:22:48.604Z,10.37
2019-02-27T23:25:19.316Z,14.33
2019-02-27T23:27:30.131Z,13.57
2019-02-27T23:29:40.927Z,12.13
2019-02-27T23:31:54.862Z,14.60
2019-02-27T23:34:07.789Z,13.20
2019-02-27T23:36:17.339Z,16.10
2019-02-27T23:38:28.118Z,15.83
2019-02-27T23:40:38.921Z,13.07
2019-02-27T23:42:49.760Z,13.63
2019-02-27T23:45:00.561Z,12.47
2019-02-27T23:47:11.383Z,12.27
2019-02-27T23:49:22.192Z,12.03
2019-02-27T23:51:33.000Z,13.03
2019-02-27T23:53:43.807Z,9.50
2019-02-27T23:55:54.714Z,13.50
2019-02-27T23:58:05.528Z,12.80
